Time;durP1;ratioP1;P1;durP2;ratioP2;P2;SDS_P1;SDS_P2;PMS_P1;PMS_P2;Temp;Humidity;BMP_temperature;BMP_pressure;BME280_temperature;BME280_humidity;BME280_pressure;Samples;Min_cycle;Max_cycle;Signal;HPM_P1;HPM_P2
2023/09/08 00:01:29;;;;;;;2.80;2.60;;;;;;;;;;6184613;23;20147;-93
2023/09/08 00:03:56;;;;;;;3.50;3.20;;;;;;;;;;6184628;23;20154;-94
2023/09/08 00:06:24;;;;;;;3.45;2.85;;;;;;;;;;6184712;23;20155;-94
2023/09/08 00:08:52;;;;;;;4.75;2.58;;;;;;;;;;6184615;23;20163;-93
2023/09/08 00:11:19;;;;;;;3.05;2.78;;;;;;;;;;6183085;23;20147;-93
2023/09/08 00:13:47;;;;;;;3.60;3.22;;;;;;;;;;6184354;23;20148;-94
2023/09/08 00:16:16;;;;;;;2.60;2.40;;;;;;;;;;6184578;23;20150;-93
2023/09/08 00:18:44;;;;;;;2.85;2.65;;;;;;;;;;6184661;23;20151;-93
2023/09/08 00:21:11;;;;;;;2.47;2.28;;;;;;;;;;6184495;23;20148;-93
2023/09/08 00:23:39;;;;;;;2.70;2.50;;;;;;;;;;6184612;23;20159;-94
2023/09/08 00:26:07;;;;;;;3.17;2.88;;;;;;;;;;6184593;23;20147;-95
2023/09/08 00:28:35;;;;;;;2.78;2.50;;;;;;;;;;6184638;23;20183;-93
2023/09/08 00:31:02;;;;;;;3.20;2.90;;;;;;;;;;6184360;23;20155;-93
2023/09/08 00:33:31;;;;;;;3.28;2.97;;;;;;;;;;6184558;23;20148;-92
2023/09/08 00:35:59;;;;;;;4.30;3.60;;;;;;;;;;6184538;23;20160;-92
2023/09/08 00:38:27;;;;;;;3.58;2.63;;;;;;;;;;6184744;23;20163;-91
2023/09/08 00:40:54;;;;;;;2.92;2.60;;;;;;;;;;6184214;23;20148;-91
2023/09/08 00:43:22;;;;;;;3.63;3.17;;;;;;;;;;6184443;23;20190;-94
2023/09/08 00:45:50;;;;;;;2.90;2.65;;;;;;;;;;6184612;23;20143;-92
2023/09/08 00:48:18;;;;;;;3.45;3.08;;;;;;;;;;6184599;23;20155;-94
2023/09/08 00:50:47;;;;;;;3.15;2.85;;;;;;;;;;6184485;23;20144;-93
2023/09/08 00:53:15;;;;;;;4.03;3.00;;;;;;;;;;6184323;23;20144;-93
2023/09/08 00:55:43;;;;;;;4.90;2.95;;;;;;;;;;6184291;23;20156;-94
2023/09/08 00:58:12;;;;;;;2.90;2.65;;;;;;;;;;6184505;23;20148;-94
2023/09/08 01:00:40;;;;;;;2.67;2.47;;;;;;;;;;6184553;23;20159;-93
2023/09/08 01:03:07;;;;;;;3.00;2.70;;;;;;;;;;6184330;23;20148;-92
2023/09/08 01:05:35;;;;;;;3.35;2.47;;;;;;;;;;6184420;23;20152;-93
2023/09/08 01:08:05;;;;;;;2.95;2.50;;;;;;;;;;6184270;23;20170;-93
2023/09/08 01:10:33;;;;;;;2.80;2.60;;;;;;;;;;6184362;23;20195;-93
2023/09/08 01:13:00;;;;;;;5.30;2.83;;;;;;;;;;6184039;23;20163;-92
2023/09/08 01:15:28;;;;;;;3.45;3.15;;;;;;;;;;6184295;23;20144;-93
2023/09/08 01:17:55;;;;;;;3.22;2.90;;;;;;;;;;6184406;23;20143;-93
2023/09/08 01:20:29;;;;;;;3.10;2.85;;;;;;;;;;6184455;23;20148;-92
2023/09/08 01:23:11;;;;;;;2.67;2.47;;;;;;;;;;6185295;23;20159;-92
2023/09/08 01:25:43;;;;;;;3.10;2.33;;;;;;;;;;6186260;23;20147;-93
2023/09/08 01:28:12;;;;;;;6.32;3.03;;;;;;;;;;6186316;23;20155;-92
2023/09/08 01:30:41;;;;;;;3.58;2.75;;;;;;;;;;6186215;23;20147;-94
2023/09/08 01:33:08;;;;;;;2.88;2.58;;;;;;;;;;6186001;23;20150;-93
2023/09/08 01:35:36;;;;;;;3.83;2.70;;;;;;;;;;6186135;23;20154;-93
2023/09/08 01:38:04;;;;;;;3.47;3.13;;;;;;;;;;6186082;23;20143;-93
2023/09/08 01:40:32;;;;;;;3.00;2.80;;;;;;;;;;6186042;23;20159;-94
2023/09/08 01:43:01;;;;;;;3.03;2.80;;;;;;;;;;6185696;23;20148;-93
2023/09/08 01:45:29;;;;;;;2.88;2.67;;;;;;;;;;6185976;23;20159;-93
2023/09/08 01:47:56;;;;;;;4.03;3.00;;;;;;;;;;6185908;23;20159;-93
2023/09/08 01:50:24;;;;;;;3.50;3.00;;;;;;;;;;6186036;23;20148;-91
2023/09/08 01:52:52;;;;;;;3.20;2.90;;;;;;;;;;6185888;23;20158;-93
2023/09/08 01:55:20;;;;;;;4.47;3.38;;;;;;;;;;6185886;23;20159;-93
2023/09/08 01:57:48;;;;;;;2.75;2.53;;;;;;;;;;6185925;23;20148;-93
2023/09/08 02:00:18;;;;;;;2.55;2.38;;;;;;;;;;6185866;23;20158;-92
2023/09/08 02:02:45;;;;;;;3.70;2.70;;;;;;;;;;6185577;23;20171;-92
2023/09/08 02:05:13;;;;;;;2.90;2.70;;;;;;;;;;6185751;23;20158;-93
2023/09/08 02:07:41;;;;;;;3.38;2.80;;;;;;;;;;6185699;23;20148;-93
2023/09/08 02:10:10;;;;;;;4.15;3.75;;;;;;;;;;6185617;23;20148;-92
2023/09/08 02:12:38;;;;;;;3.20;2.63;;;;;;;;;;6185488;23;20147;-92
2023/09/08 02:15:08;;;;;;;3.97;3.33;;;;;;;;;;6185531;23;20148;-92
2023/09/08 02:17:37;;;;;;;2.85;2.65;;;;;;;;;;6185804;23;20147;-92
2023/09/08 02:20:07;;;;;;;2.70;2.50;;;;;;;;;;6185766;23;20148;-94
2023/09/08 02:22:34;;;;;;;2.80;2.45;;;;;;;;;;6185490;23;20166;-92
2023/09/08 02:25:01;;;;;;;3.30;2.70;;;;;;;;;;6185496;23;20151;-93
2023/09/08 02:27:29;;;;;;;2.65;2.40;;;;;;;;;;6185642;23;20144;-92
2023/09/08 02:29:57;;;;;;;2.50;2.30;;;;;;;;;;6185612;23;20179;-92
2023/09/08 02:32:24;;;;;;;2.75;2.55;;;;;;;;;;6185378;23;20148;-93
2023/09/08 02:34:53;;;;;;;3.20;3.00;;;;;;;;;;6185025;23;20152;-91
2023/09/08 02:37:21;;;;;;;4.07;3.30;;;;;;;;;;6185519;23;20143;-93
2023/09/08 02:39:49;;;;;;;4.30;3.42;;;;;;;;;;6185590;23;20143;-93
2023/09/08 02:42:16;;;;;;;3.03;2.75;;;;;;;;;;6185226;23;20147;-92
2023/09/08 02:44:44;;;;;;;2.72;2.53;;;;;;;;;;6185278;23;20178;-93
2023/09/08 02:47:12;;;;;;;2.78;2.58;;;;;;;;;;6185567;23;20151;-91
2023/09/08 02:49:39;;;;;;;2.90;2.70;;;;;;;;;;6185503;23;20159;-92
2023/09/08 02:52:08;;;;;;;3.80;2.85;;;;;;;;;;6185070;23;20147;-92
2023/09/08 02:54:35;;;;;;;3.40;3.05;;;;;;;;;;6185359;23;20143;-92
2023/09/08 02:57:03;;;;;;;2.85;2.65;;;;;;;;;;6185332;23;20212;-92
2023/09/08 02:59:31;;;;;;;2.95;2.75;;;;;;;;;;6185352;23;20143;-94
2023/09/08 03:01:59;;;;;;;3.25;2.95;;;;;;;;;;6185106;23;20151;-92
2023/09/08 03:04:27;;;;;;;3.78;3.13;;;;;;;;;;6185126;23;20144;-93
2023/09/08 03:06:55;;;;;;;3.10;2.88;;;;;;;;;;6185393;23;20150;-93
2023/09/08 03:09:25;;;;;;;4.00;3.00;;;;;;;;;;6159940;23;20195;-94
2023/09/08 03:11:53;;;;;;;3.95;2.92;;;;;;;;;;6184875;23;20147;-93
2023/09/08 03:14:20;;;;;;;3.22;3.00;;;;;;;;;;6185160;23;20151;-92
2023/09/08 03:16:48;;;;;;;3.10;2.90;;;;;;;;;;6185111;23;20151;-93
2023/09/08 03:19:16;;;;;;;3.08;2.80;;;;;;;;;;6185141;23;20148;-93
2023/09/08 03:21:44;;;;;;;2.65;2.45;;;;;;;;;;6181610;23;20237;-93
2023/09/08 03:24:11;;;;;;;2.75;2.55;;;;;;;;;;6179981;23;20163;-93
2023/09/08 03:26:40;;;;;;;2.60;2.40;;;;;;;;;;6179511;23;20158;-92
2023/09/08 03:29:08;;;;;;;2.75;2.55;;;;;;;;;;6179551;23;20194;-92
2023/09/08 03:31:36;;;;;;;3.55;2.72;;;;;;;;;;6179117;23;20147;-91
2023/09/08 03:34:03;;;;;;;3.00;2.70;;;;;;;;;;6179756;23;20159;-92
2023/09/08 03:36:35;;;;;;;3.45;3.15;;;;;;;;;;6179552;23;20162;-92
2023/09/08 03:39:03;;;;;;;3.13;2.85;;;;;;;;;;6179553;23;20178;-92
2023/09/08 03:41:31;;;;;;;3.03;2.83;;;;;;;;;;6179381;23;20154;-92
2023/09/08 03:44:00;;;;;;;3.00;2.70;;;;;;;;;;6179488;23;20152;-93
2023/09/08 03:46:28;;;;;;;3.22;2.92;;;;;;;;;;6179526;23;20147;-94
2023/09/08 03:49:00;;;;;;;3.42;2.78;;;;;;;;;;6179175;23;20147;-93
2023/09/08 03:51:28;;;;;;;3.10;2.80;;;;;;;;;;6179171;23;20163;-93
2023/09/08 03:53:56;;;;;;;3.33;3.03;;;;;;;;;;6178722;23;20167;-91
2023/09/08 03:56:24;;;;;;;3.20;2.65;;;;;;;;;;6179104;23;20161;-93
2023/09/08 03:58:52;;;;;;;3.35;3.10;;;;;;;;;;6179409;23;20151;-92
2023/09/08 04:01:21;;;;;;;3.03;2.60;;;;;;;;;;6179336;23;20151;-92
2023/09/08 04:03:49;;;;;;;3.78;3.47;;;;;;;;;;6179576;23;20162;-92
2023/09/08 04:06:16;;;;;;;4.10;2.75;;;;;;;;;;6179313;23;20151;-92
2023/09/08 04:08:44;;;;;;;2.97;2.78;;;;;;;;;;6179890;23;20159;-92
2023/09/08 04:11:11;;;;;;;3.35;3.08;;;;;;;;;;6179635;23;20174;-93
2023/09/08 04:13:39;;;;;;;3.03;2.80;;;;;;;;;;6179277;23;20152;-93
2023/09/08 04:16:07;;;;;;;3.58;3.28;;;;;;;;;;6179176;23;20178;-91
2023/09/08 04:18:36;;;;;;;3.45;3.15;;;;;;;;;;6179331;23;20147;-93
2023/09/08 04:21:03;;;;;;;3.40;3.10;;;;;;;;;;6179056;23;20147;-93
2023/09/08 04:23:31;;;;;;;3.97;3.35;;;;;;;;;;6179038;23;20147;-92
2023/09/08 04:25:59;;;;;;;3.33;2.80;;;;;;;;;;6179328;23;20162;-92
2023/09/08 04:28:26;;;;;;;3.17;2.88;;;;;;;;;;6179213;23;20170;-92
2023/09/08 04:30:54;;;;;;;3.60;3.30;;;;;;;;;;6178962;23;20174;-94
2023/09/08 04:33:21;;;;;;;2.90;2.70;;;;;;;;;;6179216;23;20183;-91
2023/09/08 04:35:50;;;;;;;3.58;3.00;;;;;;;;;;6179039;23;20147;-94
2023/09/08 04:38:18;;;;;;;2.80;2.60;;;;;;;;;;6179092;23;20151;-92
2023/09/08 04:40:47;;;;;;;2.85;2.65;;;;;;;;;;6179202;23;20148;-92
2023/09/08 04:43:15;;;;;;;2.45;2.28;;;;;;;;;;6178933;23;20147;-92
2023/09/08 04:45:42;;;;;;;3.13;2.90;;;;;;;;;;6178991;23;20147;-94
2023/09/08 04:48:10;;;;;;;3.03;2.72;;;;;;;;;;6178964;23;20148;-93
2023/09/08 04:50:37;;;;;;;3.05;2.75;;;;;;;;;;6179034;23;20164;-92
2023/09/08 04:53:06;;;;;;;3.13;2.83;;;;;;;;;;6178644;23;20151;-92
2023/09/08 04:55:34;;;;;;;3.40;3.13;;;;;;;;;;6178823;23;20171;-93
2023/09/08 04:58:02;;;;;;;2.80;2.60;;;;;;;;;;6180111;23;20147;-92
2023/09/08 05:00:29;;;;;;;3.35;3.03;;;;;;;;;;6180902;23;20163;-94
2023/09/08 05:02:57;;;;;;;3.13;2.80;;;;;;;;;;6180927;23;20155;-90
2023/09/08 05:05:25;;;;;;;3.35;3.05;;;;;;;;;;6181029;23;20152;-92
2023/09/08 05:07:55;;;;;;;3.55;3.28;;;;;;;;;;6180927;23;20148;-92
2023/09/08 05:10:25;;;;;;;4.93;3.13;;;;;;;;;;6181074;23;20219;-93
2023/09/08 05:12:52;;;;;;;3.00;2.80;;;;;;;;;;6180229;23;20158;-92
2023/09/08 05:15:21;;;;;;;2.53;2.33;;;;;;;;;;6180463;23;20147;-93
2023/09/08 05:17:49;;;;;;;2.45;2.25;;;;;;;;;;6181272;23;20211;-92
2023/09/08 05:20:16;;;;;;;2.63;2.42;;;;;;;;;;6181444;23;20148;-93
2023/09/08 05:22:44;;;;;;;1.70;1.60;;;;;;;;;;6183402;23;20147;-94
2023/09/08 05:25:12;;;;;;;1.98;1.88;;;;;;;;;;6185746;23;20148;-92
2023/09/08 05:27:40;;;;;;;1.73;1.63;;;;;;;;;;6186178;23;20192;-93
2023/09/08 05:30:10;;;;;;;1.70;1.60;;;;;;;;;;6186190;23;20170;-92
2023/09/08 05:32:37;;;;;;;1.88;1.77;;;;;;;;;;6186009;23;20206;-93
2023/09/08 05:35:06;;;;;;;1.48;1.38;;;;;;;;;;6186050;23;20151;-93
2023/09/08 05:37:34;;;;;;;1.88;1.77;;;;;;;;;;6186216;23;20147;-94
2023/09/08 05:40:01;;;;;;;2.08;1.95;;;;;;;;;;6185301;23;20144;-94
2023/09/08 05:42:29;;;;;;;1.83;1.73;;;;;;;;;;6185717;23;20159;-93
2023/09/08 05:44:58;;;;;;;1.80;1.70;;;;;;;;;;6185825;23;20171;-93
2023/09/08 05:47:26;;;;;;;2.20;2.10;;;;;;;;;;6186174;23;20151;-94
2023/09/08 05:49:53;;;;;;;2.47;2.30;;;;;;;;;;6185874;23;20147;-93
2023/09/08 05:52:21;;;;;;;1.77;1.67;;;;;;;;;;6185786;23;20145;-92
2023/09/08 05:54:48;;;;;;;2.47;2.28;;;;;;;;;;6185868;23;20148;-91
2023/09/08 05:57:16;;;;;;;1.90;1.80;;;;;;;;;;6185991;23;20159;-92
2023/09/08 05:59:44;;;;;;;2.35;2.17;;;;;;;;;;6185887;23;20147;-92
2023/09/08 06:02:13;;;;;;;2.40;2.20;;;;;;;;;;6185655;23;20147;-93
2023/09/08 06:04:40;;;;;;;2.78;2.58;;;;;;;;;;6185898;23;20183;-92
2023/09/08 06:07:08;;;;;;;2.85;2.60;;;;;;;;;;6185882;23;20344;-93
2023/09/08 06:09:36;;;;;;;2.47;2.28;;;;;;;;;;6185546;23;20147;-92
2023/09/08 06:12:04;;;;;;;3.58;2.33;;;;;;;;;;6184046;23;20163;-93
2023/09/08 06:14:31;;;;;;;3.42;3.00;;;;;;;;;;6185103;23;20151;-92
2023/09/08 06:16:59;;;;;;;2.13;1.98;;;;;;;;;;6185718;23;20159;-94
2023/09/08 06:19:28;;;;;;;3.90;2.92;;;;;;;;;;6185664;23;20154;-95
2023/09/08 06:24:37;;;;;;;2.60;2.40;;;;;;;;;;6184387;23;20144;-92
2023/09/08 06:27:05;;;;;;;2.10;1.90;;;;;;;;;;6185001;23;20167;-93
2023/09/08 06:29:33;;;;;;;2.13;1.92;;;;;;;;;;6184865;23;20147;-93
2023/09/08 06:32:00;;;;;;;2.50;2.30;;;;;;;;;;6169433;23;20522;-91
2023/09/08 06:34:29;;;;;;;2.17;1.98;;;;;;;;;;6163993;23;20179;-92
2023/09/08 06:36:57;;;;;;;2.33;2.13;;;;;;;;;;6160443;23;20187;-90
2023/09/08 06:39:27;;;;;;;2.60;2.40;;;;;;;;;;6162319;23;20202;-92
2023/09/08 06:41:55;;;;;;;2.03;1.92;;;;;;;;;;6170383;23;20163;-91
2023/09/08 06:44:23;;;;;;;1.98;1.88;;;;;;;;;;6169595;23;20186;-91
2023/09/08 06:46:50;;;;;;;2.83;2.20;;;;;;;;;;6159212;23;20658;-89
2023/09/08 06:49:18;;;;;;;3.08;2.65;;;;;;;;;;6156916;23;20250;-88
2023/09/08 06:51:48;;;;;;;3.47;2.90;;;;;;;;;;6158022;23;20191;-89
2023/09/08 06:54:16;;;;;;;2.85;2.65;;;;;;;;;;6158125;23;20167;-92
2023/09/08 06:56:44;;;;;;;3.88;2.80;;;;;;;;;;6157396;23;20221;-91
2023/09/08 06:59:11;;;;;;;2.63;2.42;;;;;;;;;;6156822;23;20174;-89
2023/09/08 07:01:39;;;;;;;3.95;3.08;;;;;;;;;;6160911;23;20231;-90
2023/09/08 07:04:07;;;;;;;2.85;2.65;;;;;;;;;;6159941;23;20172;-89
2023/09/08 07:06:36;;;;;;;2.72;2.53;;;;;;;;;;6157811;23;20230;-92
2023/09/08 07:09:05;;;;;;;3.38;3.08;;;;;;;;;;6157203;23;20175;-91
2023/09/08 07:11:33;;;;;;;3.72;3.40;;;;;;;;;;6156590;23;20226;-91
2023/09/08 07:14:01;;;;;;;4.35;3.65;;;;;;;;;;6155520;23;20191;-87
2023/09/08 07:16:28;;;;;;;3.90;3.47;;;;;;;;;;6160522;23;20206;-86
2023/09/08 07:18:56;;;;;;;3.00;2.80;;;;;;;;;;6157284;23;20206;-86
2023/09/08 07:21:23;;;;;;;3.20;2.95;;;;;;;;;;6155128;23;20209;-86
2023/09/08 07:23:51;;;;;;;4.55;3.80;;;;;;;;;;6155700;23;20258;-85
2023/09/08 07:26:20;;;;;;;3.70;3.40;;;;;;;;;;6155194;23;20195;-86
2023/09/08 07:28:48;;;;;;;3.70;3.38;;;;;;;;;;6154735;23;20569;-88
2023/09/08 07:31:16;;;;;;;3.35;3.03;;;;;;;;;;6155087;23;20206;-88
2023/09/08 07:33:44;;;;;;;3.53;3.20;;;;;;;;;;6155146;23;20710;-85
2023/09/08 07:36:13;;;;;;;4.60;4.10;;;;;;;;;;6154928;23;20226;-86
2023/09/08 07:38:41;;;;;;;3.75;3.45;;;;;;;;;;6155360;23;20182;-86
2023/09/08 07:41:09;;;;;;;3.78;3.47;;;;;;;;;;6159835;23;20258;-86
2023/09/08 07:43:40;;;;;;;3.50;3.20;;;;;;;;;;6155318;23;20175;-87
2023/09/08 07:46:08;;;;;;;3.65;3.38;;;;;;;;;;6154616;23;20199;-84
2023/09/08 07:48:35;;;;;;;4.05;3.45;;;;;;;;;;6154839;23;20307;-86
2023/09/08 07:51:03;;;;;;;3.97;3.67;;;;;;;;;;6154916;23;20270;-87
2023/09/08 07:53:30;;;;;;;3.58;3.28;;;;;;;;;;6156454;23;20336;-85
2023/09/08 07:55:58;;;;;;;4.05;3.75;;;;;;;;;;6156085;23;20712;-85
2023/09/08 07:58:25;;;;;;;3.70;3.28;;;;;;;;;;6155662;23;20210;-85
2023/09/08 08:00:54;;;;;;;3.45;3.15;;;;;;;;;;6155528;23;20197;-83
2023/09/08 08:03:22;;;;;;;3.67;3.35;;;;;;;;;;6155847;23;20178;-84
2023/09/08 08:05:49;;;;;;;3.80;3.33;;;;;;;;;;6155574;23;20659;-86
2023/09/08 08:08:16;;;;;;;3.78;3.38;;;;;;;;;;6157092;23;20206;-88
2023/09/08 08:10:45;;;;;;;4.03;3.47;;;;;;;;;;6154336;23;20578;-85
2023/09/08 08:13:12;;;;;;;3.70;3.40;;;;;;;;;;6154553;23;20230;-87
2023/09/08 08:15:43;;;;;;;4.43;3.20;;;;;;;;;;6154538;23;20620;-88
2023/09/08 08:18:12;;;;;;;3.80;3.50;;;;;;;;;;6154470;23;20163;-85
2023/09/08 08:20:39;;;;;;;3.65;3.42;;;;;;;;;;6155311;23;20206;-85
2023/09/08 08:23:08;;;;;;;4.75;4.35;;;;;;;;;;6170841;23;20210;-84
2023/09/08 08:25:36;;;;;;;3.80;3.50;;;;;;;;;;6181241;23;20195;-84
2023/09/08 08:28:03;;;;;;;5.00;3.33;;;;;;;;;;6181555;23;20179;-84
2023/09/08 08:30:32;;;;;;;3.65;3.30;;;;;;;;;;6180123;23;20189;-83
2023/09/08 08:32:59;;;;;;;4.32;3.92;;;;;;;;;;6180977;23;20191;-83
2023/09/08 08:35:28;;;;;;;3.83;3.40;;;;;;;;;;6181586;23;20187;-83
2023/09/08 08:37:58;;;;;;;4.15;3.85;;;;;;;;;;6181461;23;20163;-83
2023/09/08 08:40:26;;;;;;;7.47;4.45;;;;;;;;;;6179095;23;20498;-85
2023/09/08 08:42:57;;;;;;;3.92;3.63;;;;;;;;;;6163001;23;20214;-85
2023/09/08 08:45:25;;;;;;;4.82;4.40;;;;;;;;;;6160478;23;20206;-89
2023/09/08 08:47:54;;;;;;;4.40;3.85;;;;;;;;;;6158887;23;20181;-85
2023/09/08 08:50:22;;;;;;;5.25;4.65;;;;;;;;;;6156072;23;20579;-88
2023/09/08 08:52:51;;;;;;;4.28;3.88;;;;;;;;;;6155568;23;20249;-86
2023/09/08 08:55:18;;;;;;;3.40;3.10;;;;;;;;;;6155198;23;20203;-87
2023/09/08 08:57:46;;;;;;;4.88;4.40;;;;;;;;;;6154999;23;20175;-85
2023/09/08 09:00:18;;;;;;;4.10;3.80;;;;;;;;;;6154855;23;20198;-86
2023/09/08 09:02:48;;;;;;;5.35;4.53;;;;;;;;;;6155261;23;20175;-84
2023/09/08 09:05:16;;;;;;;4.82;4.45;;;;;;;;;;6157718;23;20199;-85
2023/09/08 09:07:44;;;;;;;4.40;4.00;;;;;;;;;;6156328;23;20207;-90
2023/09/08 09:10:13;;;;;;;5.15;4.65;;;;;;;;;;6157831;23;20202;-89
2023/09/08 09:12:41;;;;;;;8.23;4.20;;;;;;;;;;6159932;23;20230;-91
2023/09/08 09:15:10;;;;;;;5.22;4.72;;;;;;;;;;6155468;23;20210;-90
2023/09/08 09:17:39;;;;;;;4.80;4.40;;;;;;;;;;6156835;23;20171;-89
2023/09/08 09:20:17;;;;;;;5.43;4.97;;;;;;;;;;6154867;23;20234;-88
2023/09/08 09:22:45;;;;;;;5.03;4.63;;;;;;;;;;6155989;23;20175;-90
2023/09/08 09:25:23;;;;;;;9.00;4.50;;;;;;;;;;6155288;23;20766;-90
2023/09/08 09:27:54;;;;;;;5.57;4.13;;;;;;;;;;6154877;23;20234;-90
2023/09/08 09:30:23;;;;;;;5.93;4.43;;;;;;;;;;6154893;23;20246;-89
2023/09/08 09:32:59;;;;;;;4.72;4.32;;;;;;;;;;6154748;23;20274;-90
2023/09/08 09:35:42;;;;;;;3.80;3.50;;;;;;;;;;6154937;23;20202;-89
2023/09/08 09:38:10;;;;;;;4.93;3.83;;;;;;;;;;6157211;23;20680;-90
2023/09/08 09:40:39;;;;;;;3.67;3.38;;;;;;;;;;6156803;23;20179;-89
2023/09/08 09:43:08;;;;;;;4.72;4.32;;;;;;;;;;6154700;23;20167;-89
2023/09/08 09:45:36;;;;;;;4.05;3.75;;;;;;;;;;6156734;23;20274;-88
2023/09/08 09:48:05;;;;;;;5.28;4.85;;;;;;;;;;6156493;23;20250;-88
2023/09/08 09:50:35;;;;;;;4.32;3.67;;;;;;;;;;6156441;23;20246;-90
2023/09/08 09:53:09;;;;;;;4.13;3.72;;;;;;;;;;6155715;23;20199;-90
2023/09/08 09:55:40;;;;;;;4.40;4.03;;;;;;;;;;6156292;23;20262;-88
2023/09/08 09:58:10;;;;;;;6.07;4.30;;;;;;;;;;6155602;23;20546;-88
2023/09/08 10:00:39;;;;;;;3.90;3.45;;;;;;;;;;6156602;23;20190;-89
2023/09/08 10:03:06;;;;;;;4.35;4.05;;;;;;;;;;6156150;23;20611;-89
2023/09/08 10:05:35;;;;;;;4.03;3.72;;;;;;;;;;6155858;23;20225;-89
2023/09/08 10:08:02;;;;;;;4.35;4.00;;;;;;;;;;6156496;23;20204;-89
2023/09/08 10:10:31;;;;;;;4.32;4.03;;;;;;;;;;6156366;23;20246;-90
2023/09/08 10:13:06;;;;;;;3.72;3.42;;;;;;;;;;6156157;23;20255;-90
2023/09/08 10:15:34;;;;;;;4.20;3.72;;;;;;;;;;6155958;23;20233;-89
2023/09/08 10:18:06;;;;;;;3.90;3.60;;;;;;;;;;6156150;23;20580;-90
2023/09/08 10:20:35;;;;;;;4.50;3.58;;;;;;;;;;6156443;23;20246;-89
2023/09/08 10:23:11;;;;;;;3.33;3.13;;;;;;;;;;6155893;23;20174;-89
2023/09/08 10:25:53;;;;;;;3.85;3.55;;;;;;;;;;6156746;23;20273;-89
2023/09/08 10:28:23;;;;;;;3.47;3.17;;;;;;;;;;6156224;23;20666;-89
2023/09/08 10:30:51;;;;;;;3.55;3.17;;;;;;;;;;6156865;23;20246;-90
2023/09/08 10:33:20;;;;;;;3.75;3.45;;;;;;;;;;6155748;23;20273;-90
2023/09/08 10:35:47;;;;;;;3.97;3.67;;;;;;;;;;6156313;23;20655;-89
2023/09/08 10:38:25;;;;;;;3.13;2.83;;;;;;;;;;6155887;23;20572;-89
2023/09/08 10:40:53;;;;;;;5.38;3.78;;;;;;;;;;6155875;23;20175;-89
2023/09/08 10:43:22;;;;;;;4.07;3.78;;;;;;;;;;6156000;23;20254;-89
2023/09/08 10:45:50;;;;;;;3.42;3.00;;;;;;;;;;6155997;23;20231;-90
2023/09/08 10:48:17;;;;;;;3.83;3.60;;;;;;;;;;6156109;23;20565;-90
2023/09/08 10:50:45;;;;;;;4.07;3.78;;;;;;;;;;6157211;23;20257;-90
2023/09/08 10:53:16;;;;;;;3.08;2.85;;;;;;;;;;6156224;23;20277;-90
2023/09/08 10:55:48;;;;;;;4.32;3.80;;;;;;;;;;6155358;23;20199;-89
2023/09/08 10:58:35;;;;;;;4.07;3.67;;;;;;;;;;6155896;23;20201;-90
2023/09/08 11:01:04;;;;;;;3.88;3.55;;;;;;;;;;6156492;23;20159;-89
2023/09/08 11:03:47;;;;;;;3.33;3.13;;;;;;;;;;6156817;23;20508;-90
2023/09/08 11:06:21;;;;;;;4.25;3.88;;;;;;;;;;6155711;23;20408;-88
2023/09/08 11:08:52;;;;;;;3.10;2.88;;;;;;;;;;6171295;23;20178;-88
2023/09/08 11:11:20;;;;;;;4.07;3.78;;;;;;;;;;6183544;23;20155;-89
2023/09/08 11:13:49;;;;;;;3.55;3.35;;;;;;;;;;6183671;23;20242;-88
2023/09/08 11:16:21;;;;;;;3.35;3.00;;;;;;;;;;6183666;23;20198;-87
2023/09/08 11:18:48;;;;;;;3.45;3.15;;;;;;;;;;6183791;23;20181;-89
2023/09/08 11:21:16;;;;;;;3.85;3.55;;;;;;;;;;6161918;23;20185;-90
2023/09/08 11:23:44;;;;;;;3.70;3.40;;;;;;;;;;6158925;23;20250;-90
2023/09/08 11:26:14;;;;;;;4.10;3.80;;;;;;;;;;6157994;23;20195;-89
2023/09/08 11:28:42;;;;;;;3.83;3.53;;;;;;;;;;6157002;23;20195;-90
2023/09/08 11:31:13;;;;;;;4.60;3.40;;;;;;;;;;6156604;23;20241;-89
2023/09/08 11:33:40;;;;;;;4.28;3.97;;;;;;;;;;6156261;23;20565;-89
2023/09/08 11:36:15;;;;;;;3.42;3.13;;;;;;;;;;6155608;23;20218;-89
2023/09/08 11:38:45;;;;;;;4.13;3.75;;;;;;;;;;6155401;23;20173;-89
2023/09/08 11:41:12;;;;;;;3.35;3.15;;;;;;;;;;6155315;23;20230;-90
2023/09/08 11:43:40;;;;;;;3.80;3.60;;;;;;;;;;6155557;23;20174;-89
2023/09/08 11:46:08;;;;;;;3.80;3.60;;;;;;;;;;6155353;23;20269;-89
2023/09/08 11:48:38;;;;;;;3.58;3.33;;;;;;;;;;6156167;23;20171;-90
2023/09/08 11:51:08;;;;;;;3.65;3.45;;;;;;;;;;6155413;23;20452;-89
2023/09/08 11:53:37;;;;;;;4.25;3.92;;;;;;;;;;6157110;23;20155;-90
2023/09/08 11:56:05;;;;;;;3.28;3.08;;;;;;;;;;6156273;23;20281;-88
2023/09/08 11:58:33;;;;;;;3.30;3.10;;;;;;;;;;6160529;23;20198;-89
2023/09/08 12:01:01;;;;;;;3.40;3.10;;;;;;;;;;6164079;23;20181;-89
2023/09/08 12:03:28;;;;;;;2.97;2.78;;;;;;;;;;6157477;23;20255;-90
2023/09/08 12:05:58;;;;;;;3.42;3.20;;;;;;;;;;6155359;23;20262;-88
2023/09/08 12:08:27;;;;;;;3.10;2.80;;;;;;;;;;6155488;23;20177;-91
2023/09/08 12:10:55;;;;;;;3.70;3.50;;;;;;;;;;6155576;23;20205;-90
2023/09/08 12:13:24;;;;;;;3.20;3.00;;;;;;;;;;6156894;23;20686;-89
2023/09/08 12:15:52;;;;;;;3.72;3.42;;;;;;;;;;6155200;23;20198;-88
2023/09/08 12:18:20;;;;;;;3.70;3.40;;;;;;;;;;6155310;23;20627;-88
2023/09/08 12:20:47;;;;;;;3.47;3.28;;;;;;;;;;6155430;23;20574;-89
2023/09/08 12:23:22;;;;;;;3.97;3.78;;;;;;;;;;6154568;23;20245;-89
2023/09/08 12:25:51;;;;;;;3.85;3.55;;;;;;;;;;6154905;23;20205;-89
2023/09/08 12:28:21;;;;;;;4.13;3.83;;;;;;;;;;6154950;23;20257;-89
2023/09/08 12:30:49;;;;;;;3.80;3.50;;;;;;;;;;6155453;23;20182;-89
2023/09/08 12:33:19;;;;;;;3.50;3.30;;;;;;;;;;6154676;23;20253;-90
2023/09/08 12:35:48;;;;;;;3.38;3.17;;;;;;;;;;6154883;23;20212;-89
2023/09/08 12:38:16;;;;;;;3.45;3.20;;;;;;;;;;6155057;23;20171;-89
2023/09/08 12:40:45;;;;;;;3.10;2.90;;;;;;;;;;6159366;23;20194;-88
2023/09/08 12:43:13;;;;;;;3.45;3.25;;;;;;;;;;6153937;23;20171;-89
2023/09/08 12:45:40;;;;;;;3.90;2.75;;;;;;;;;;6154284;23;20257;-88
2023/09/08 12:48:09;;;;;;;4.78;3.17;;;;;;;;;;6154961;23;20201;-89
2023/09/08 12:50:36;;;;;;;2.95;2.80;;;;;;;;;;6154831;23;20174;-89
2023/09/08 12:53:04;;;;;;;3.95;3.65;;;;;;;;;;6155952;23;20198;-90
2023/09/08 12:55:31;;;;;;;3.38;3.10;;;;;;;;;;6168309;23;20186;-87
2023/09/08 12:58:00;;;;;;;3.22;3.03;;;;;;;;;;6183132;23;20166;-87
2023/09/08 13:00:28;;;;;;;3.80;3.50;;;;;;;;;;6182946;23;20166;-87
2023/09/08 13:02:56;;;;;;;2.92;2.72;;;;;;;;;;6169135;23;20165;-88
2023/09/08 13:05:23;;;;;;;3.40;3.17;;;;;;;;;;6154868;23;20193;-89
2023/09/08 13:07:51;;;;;;;3.13;2.92;;;;;;;;;;6155437;23;20198;-90
2023/09/08 13:10:19;;;;;;;3.33;3.13;;;;;;;;;;6155235;23;20662;-88
2023/09/08 13:12:48;;;;;;;4.00;3.58;;;;;;;;;;6155171;23;20277;-88
2023/09/08 13:15:17;;;;;;;4.18;3.88;;;;;;;;;;6155426;23;20245;-88
2023/09/08 13:17:45;;;;;;;3.35;3.05;;;;;;;;;;6154738;23;20709;-89
2023/09/08 13:20:13;;;;;;;5.25;3.65;;;;;;;;;;6156554;23;20253;-87
2023/09/08 13:22:40;;;;;;;3.13;2.92;;;;;;;;;;6156617;23;20533;-88
2023/09/08 13:25:09;;;;;;;2.92;2.72;;;;;;;;;;6156972;23;20273;-89
2023/09/08 13:27:37;;;;;;;3.05;2.85;;;;;;;;;;6157164;23;20201;-89
2023/09/08 13:30:12;;;;;;;3.20;3.00;;;;;;;;;;6156723;23;20567;-90
2023/09/08 13:32:42;;;;;;;2.88;2.67;;;;;;;;;;6156423;23;20173;-89
2023/09/08 13:35:10;;;;;;;3.10;2.90;;;;;;;;;;6179082;23;20210;-87
2023/09/08 13:37:38;;;;;;;2.53;2.33;;;;;;;;;;6184557;23;20166;-87
2023/09/08 13:40:07;;;;;;;2.67;2.47;;;;;;;;;;6184762;23;20185;-87
2023/09/08 13:42:35;;;;;;;5.97;3.53;;;;;;;;;;6184218;23;20163;-89
2023/09/08 13:45:03;;;;;;;2.70;2.60;;;;;;;;;;6167236;23;20578;-89
2023/09/08 13:47:31;;;;;;;2.92;2.53;;;;;;;;;;6158919;23;20171;-89
2023/09/08 13:49:59;;;;;;;3.60;3.38;;;;;;;;;;6159479;23;20686;-88
2023/09/08 13:52:27;;;;;;;3.08;2.88;;;;;;;;;;6157520;23;20722;-89
2023/09/08 13:54:55;;;;;;;2.85;2.53;;;;;;;;;;6157055;23;20611;-89
2023/09/08 13:57:25;;;;;;;3.75;3.45;;;;;;;;;;6156536;23;20213;-89
2023/09/08 13:59:54;;;;;;;3.13;2.92;;;;;;;;;;6156898;23;20516;-89
2023/09/08 14:02:21;;;;;;;3.55;3.10;;;;;;;;;;6156664;23;20167;-88
2023/09/08 14:04:49;;;;;;;3.80;3.50;;;;;;;;;;6156840;23;20592;-89
2023/09/08 14:07:18;;;;;;;3.55;3.10;;;;;;;;;;6156640;23;20561;-89
2023/09/08 14:09:45;;;;;;;4.40;4.10;;;;;;;;;;6156740;23;20694;-89
2023/09/08 14:12:13;;;;;;;2.75;2.55;;;;;;;;;;6156480;23;20567;-89
2023/09/08 14:14:41;;;;;;;2.63;2.42;;;;;;;;;;6156519;23;20178;-89
2023/09/08 14:17:09;;;;;;;3.88;3.58;;;;;;;;;;6156667;23;20595;-90
2023/09/08 14:19:36;;;;;;;3.05;2.85;;;;;;;;;;6156361;23;20246;-90
2023/09/08 14:22:04;;;;;;;3.20;2.90;;;;;;;;;;6156789;23;20209;-88
2023/09/08 14:24:33;;;;;;;3.90;3.60;;;;;;;;;;6156398;23;20199;-87
2023/09/08 14:27:00;;;;;;;4.20;3.75;;;;;;;;;;6156655;23;20181;-88
2023/09/08 14:29:28;;;;;;;3.22;3.03;;;;;;;;;;6156229;23;20202;-88
2023/09/08 14:31:55;;;;;;;3.28;3.08;;;;;;;;;;6158454;23;20171;-88
2023/09/08 14:34:23;;;;;;;3.05;2.85;;;;;;;;;;6156182;23;20686;-88
2023/09/08 14:36:50;;;;;;;3.00;2.80;;;;;;;;;;6155960;23;20285;-88
2023/09/08 14:39:18;;;;;;;3.63;3.03;;;;;;;;;;6156441;23;20250;-87
2023/09/08 14:41:50;;;;;;;3.47;3.17;;;;;;;;;;6156338;23;20245;-87
2023/09/08 14:44:17;;;;;;;2.85;2.75;;;;;;;;;;6155944;23;20167;-89
2023/09/08 14:46:45;;;;;;;3.88;3.25;;;;;;;;;;6155763;23;20738;-88
2023/09/08 14:49:14;;;;;;;3.00;2.80;;;;;;;;;;6156343;23;20227;-88
2023/09/08 14:51:42;;;;;;;2.85;2.65;;;;;;;;;;6155775;23;20206;-88
2023/09/08 14:54:09;;;;;;;2.50;2.30;;;;;;;;;;6156117;23;20567;-89